createdAt,value
2019-04-05T00:00:25.204Z,15.75
2019-04-05T00:02:54.369Z,16.45
2019-04-05T00:05:23.550Z,15.55
2019-04-05T00:07:52.787Z,15.65
2019-04-05T00:10:22.191Z,14.38
2019-04-05T00:12:51.504Z,16.30
2019-04-05T00:15:20.664Z,17.52
2019-04-05T00:17:49.832Z,15.35
2019-04-05T00:20:18.979Z,15.95
2019-04-05T00:22:48.150Z,15.85
2019-04-05T00:25:17.303Z,16.62
2019-04-05T00:27:47.653Z,16.27
2019-04-05T00:30:16.883Z,15.23
2019-04-05T00:32:46.061Z,16.30
2019-04-05T00:35:15.296Z,16.52
2019-04-05T00:37:44.467Z,15.53
2019-04-05T00:40:13.897Z,16.57
2019-04-05T00:42:43.086Z,16.70
2019-04-05T00:45:12.237Z,18.37
2019-04-05T00:47:41.407Z,19.87
2019-04-05T00:50:10.562Z,17.65
2019-04-05T00:52:39.715Z,17.12
2019-04-05T00:55:08.897Z,18.15
2019-04-05T01:25:26.623Z,19.82
2019-04-05T01:27:55.888Z,20.77
2019-04-05T01:30:25.166Z,20.85
2019-04-05T01:32:54.330Z,20.90
2019-04-05T01:35:23.503Z,19.00
2019-04-05T01:37:52.652Z,22.13
2019-04-05T01:40:21.840Z,24.30
2019-04-05T01:42:51.047Z,21.40
2019-04-05T01:45:20.222Z,21.90
2019-04-05T01:47:49.398Z,20.40
2019-04-05T01:50:20.178Z,21.10
2019-04-05T01:52:49.354Z,22.77
2019-04-05T01:55:18.573Z,21.80
2019-04-05T01:57:47.736Z,22.45
2019-04-05T02:00:16.965Z,20.85
2019-04-05T02:02:46.255Z,20.32
2019-04-05T02:05:15.422Z,20.30
2019-04-05T02:07:44.591Z,19.55
2019-04-05T02:10:13.753Z,19.95
2019-04-05T02:12:42.940Z,20.23
2019-04-05T02:15:24.451Z,19.90
2019-04-05T02:17:53.738Z,19.70
2019-04-05T02:20:22.947Z,23.00
2019-04-05T02:22:52.184Z,21.75
2019-04-05T02:25:21.354Z,21.62
2019-04-05T02:27:50.530Z,20.88
2019-04-05T02:30:19.794Z,21.27
2019-04-05T02:32:48.987Z,19.48
2019-04-05T02:35:18.165Z,22.70
2019-04-05T02:37:47.390Z,23.35
2019-04-05T02:40:16.952Z,19.70
2019-04-05T02:42:47.182Z,21.68
2019-04-05T02:45:16.331Z,20.05
2019-04-05T02:47:51.647Z,21.33
2019-04-05T02:50:19.294Z,20.50
2019-04-05T02:52:48.480Z,21.55
2019-04-05T02:55:17.820Z,22.22
2019-04-05T02:57:47.059Z,21.73
2019-04-05T03:00:16.260Z,23.02
2019-04-05T03:02:45.422Z,20.65
2019-04-05T03:05:14.572Z,20.95
2019-04-05T03:07:43.735Z,21.75
2019-04-05T03:10:32.777Z,22.62
2019-04-05T03:13:01.937Z,22.87
2019-04-05T03:15:31.275Z,22.60
2019-04-05T03:18:00.579Z,21.23
2019-04-05T03:20:32.854Z,22.55
2019-04-05T03:23:02.069Z,21.80
2019-04-05T03:25:31.246Z,22.67
2019-04-05T03:28:00.475Z,21.60
2019-04-05T03:30:29.720Z,23.80
2019-04-05T03:32:58.908Z,24.63
2019-04-05T03:35:28.207Z,21.85
2019-04-05T03:37:57.404Z,23.42
2019-04-05T03:40:26.588Z,25.12
2019-04-05T03:42:55.814Z,24.92
2019-04-05T03:45:24.994Z,24.20
2019-04-05T03:47:54.168Z,25.80
2019-04-05T03:50:23.346Z,26.65
2019-04-05T03:52:52.532Z,24.87
2019-04-05T03:55:21.833Z,27.45
2019-04-05T03:57:51.063Z,23.60
2019-04-05T04:00:20.264Z,25.90
2019-04-05T04:02:51.000Z,22.98
2019-04-05T04:05:20.175Z,21.87
2019-04-05T04:07:49.327Z,21.57
2019-04-05T04:10:18.532Z,23.77
2019-04-05T04:12:47.724Z,22.62
2019-04-05T04:15:16.903Z,22.90
2019-04-05T04:17:46.165Z,23.20
2019-04-05T04:20:31.975Z,23.35
2019-04-05T04:23:01.142Z,23.45
2019-04-05T04:25:30.373Z,23.02
2019-04-05T04:27:59.577Z,20.45
2019-04-05T04:30:28.807Z,21.37
2019-04-05T04:32:58.140Z,22.60
2019-04-05T04:35:28.374Z,22.48
2019-04-05T04:37:57.572Z,22.52
2019-04-05T04:40:26.957Z,21.42
2019-04-05T04:42:56.244Z,30.23
2019-04-05T04:45:25.594Z,29.12
2019-04-05T04:47:54.831Z,29.95
2019-04-05T04:50:24.580Z,29.82
2019-04-05T04:52:53.808Z,27.85
2019-04-05T04:55:22.952Z,31.40
2019-04-05T04:57:52.142Z,28.62
2019-04-05T05:00:22.354Z,28.05
2019-04-05T05:02:51.533Z,28.87
2019-04-05T05:05:20.690Z,28.38
2019-04-05T05:07:49.858Z,32.03
2019-04-05T05:10:20.090Z,32.05
2019-04-05T05:12:49.320Z,33.63
2019-04-05T05:15:18.538Z,33.23
2019-04-05T05:17:58.078Z,33.65
2019-04-05T05:20:18.614Z,27.50
2019-04-05T05:22:47.818Z,32.05
2019-04-05T05:25:16.983Z,32.65
2019-04-05T05:27:46.151Z,30.37
2019-04-05T05:30:15.510Z,34.85
2019-04-05T05:32:44.786Z,34.13
2019-04-05T05:35:14.035Z,36.93
2019-04-05T05:37:43.289Z,38.88
2019-04-05T05:40:12.528Z,39.35
2019-04-05T05:42:41.709Z,35.48
2019-04-05T05:45:10.920Z,36.08
2019-04-05T05:47:51.291Z,34.18
2019-04-05T05:50:11.007Z,35.85
2019-04-05T05:52:40.156Z,33.02
2019-04-05T05:55:09.333Z,38.48
2019-04-05T05:57:38.494Z,47.40
2019-04-05T06:00:08.552Z,40.58
2019-04-05T06:02:38.912Z,36.45
2019-04-05T06:05:08.740Z,39.35
2019-04-05T06:07:37.907Z,33.33
2019-04-05T06:10:07.350Z,37.63
2019-04-05T06:12:36.591Z,34.92
2019-04-05T06:15:06.387Z,37.28
2019-04-05T06:17:35.581Z,42.23
2019-04-05T06:20:07.030Z,39.90
2019-04-05T06:22:36.305Z,40.15
2019-04-05T06:25:08.340Z,41.95
2019-04-05T06:27:37.573Z,37.45
2019-04-05T06:30:07.716Z,38.80
2019-04-05T06:32:36.919Z,39.95
2019-04-05T06:35:07.002Z,42.17
2019-04-05T06:37:36.227Z,37.83
2019-04-05T06:40:06.984Z,37.05
2019-04-05T06:42:36.134Z,38.63
2019-04-05T06:45:06.224Z,37.88
2019-04-05T06:47:35.491Z,37.95
2019-04-05T06:50:06.595Z,38.28
2019-04-05T06:52:35.849Z,40.17
2019-04-05T06:55:06.182Z,47.65
2019-04-05T06:57:36.559Z,44.35
2019-04-05T07:00:05.736Z,43.58
2019-04-05T07:02:35.548Z,40.95
2019-04-05T07:05:06.441Z,41.85
2019-04-05T07:07:35.629Z,53.25
2019-04-05T07:10:05.593Z,44.85
2019-04-05T07:12:34.875Z,45.83
2019-04-05T07:15:06.368Z,40.75
2019-04-05T07:17:35.591Z,46.02
2019-04-05T07:20:05.745Z,49.83
2019-04-05T07:22:39.194Z,41.58
2019-04-05T07:25:06.522Z,41.13
2019-04-05T07:27:35.766Z,41.30
2019-04-05T07:30:06.595Z,45.08
2019-04-05T07:32:35.857Z,42.75
2019-04-05T07:35:06.435Z,40.83
2019-04-05T07:37:35.683Z,40.58
2019-04-05T07:40:06.406Z,36.10
2019-04-05T07:42:35.668Z,45.48
2019-04-05T07:45:06.217Z,43.55
2019-04-05T07:47:35.403Z,49.80
2019-04-05T07:50:06.802Z,47.62
2019-04-05T07:52:36.088Z,43.38
2019-04-05T07:55:06.884Z,38.38
2019-04-05T07:57:36.374Z,42.03
2019-04-05T08:00:07.574Z,40.80
2019-04-05T08:02:37.928Z,36.90
2019-04-05T08:05:07.592Z,34.92
2019-04-05T08:07:40.095Z,33.00
2019-04-05T08:10:09.577Z,30.88
2019-04-05T08:12:38.767Z,31.35
2019-04-05T08:15:07.972Z,35.43
2019-04-05T08:17:37.147Z,33.85
2019-04-05T08:20:07.482Z,35.08
2019-04-05T08:22:36.707Z,34.27
2019-04-05T08:25:06.048Z,37.00
2019-04-05T08:27:35.220Z,37.42
2019-04-05T08:30:06.532Z,34.45
2019-04-05T08:32:35.694Z,30.77
2019-04-05T08:35:06.254Z,33.60
2019-04-05T08:37:35.501Z,29.63
2019-04-05T08:40:06.532Z,33.45
2019-04-05T08:42:35.749Z,33.08
2019-04-05T08:45:08.040Z,32.00
2019-04-05T08:47:37.210Z,29.10
2019-04-05T08:50:07.299Z,26.50
2019-04-05T08:52:36.514Z,27.55
2019-04-05T08:55:06.655Z,26.42
2019-04-05T08:57:35.815Z,27.87
2019-04-05T09:00:07.035Z,26.97
2019-04-05T09:02:36.475Z,25.12
2019-04-05T09:05:06.838Z,23.47
2019-04-05T09:07:36.019Z,26.25
2019-04-05T09:10:08.235Z,28.67
2019-04-05T09:12:37.416Z,28.00
2019-04-05T09:15:07.057Z,27.25
2019-04-05T09:17:36.291Z,23.47
2019-04-05T09:20:05.452Z,23.80
2019-04-05T09:22:35.763Z,25.85
2019-04-05T09:25:07.575Z,20.02
2019-04-05T09:27:37.901Z,22.82
2019-04-05T09:30:07.817Z,26.15
2019-04-05T09:32:36.999Z,24.32
2019-04-05T09:35:06.388Z,27.70
2019-04-05T09:37:35.581Z,26.07
2019-04-05T09:40:07.828Z,25.80
2019-04-05T09:42:37.057Z,21.20
2019-04-05T09:45:06.601Z,24.23
2019-04-05T09:47:37.483Z,23.38
2019-04-05T09:50:06.847Z,22.22
2019-04-05T09:52:36.027Z,22.30
2019-04-05T09:55:06.070Z,20.88
2019-04-05T09:57:35.271Z,21.52
2019-04-05T10:00:12.414Z,20.80
2019-04-05T10:02:41.616Z,24.30
2019-04-05T10:05:10.852Z,30.08
2019-04-05T10:07:53.741Z,26.75
2019-04-05T10:10:11.256Z,33.10
2019-04-05T10:12:40.427Z,27.82
2019-04-05T10:15:09.610Z,31.35
2019-04-05T10:17:38.902Z,26.62
2019-04-05T10:20:08.294Z,29.92
2019-04-05T10:22:37.501Z,31.57
2019-04-05T10:25:06.917Z,30.05
2019-04-05T10:27:36.087Z,27.07
2019-04-05T10:30:08.543Z,28.42
2019-04-05T10:32:37.826Z,26.52
2019-04-05T10:35:07.414Z,28.65
2019-04-05T10:37:36.572Z,31.20
2019-04-05T10:40:06.709Z,29.45
2019-04-05T10:42:36.758Z,30.55
2019-04-05T10:45:09.202Z,28.73
2019-04-05T10:47:38.448Z,25.10
2019-04-05T10:50:08.684Z,23.15
2019-04-05T10:52:38.110Z,29.00
2019-04-05T10:55:07.388Z,27.58
2019-04-05T10:57:37.603Z,28.32
2019-04-05T11:00:10.256Z,26.33
2019-04-05T11:02:39.570Z,28.00
2019-04-05T11:05:08.819Z,25.37
2019-04-05T11:07:38.092Z,28.62
2019-04-05T11:10:07.618Z,28.85
2019-04-05T11:12:36.812Z,25.08
2019-04-05T11:15:06.526Z,28.10
2019-04-05T11:17:35.728Z,29.40
2019-04-05T11:20:20.802Z,30.80
2019-04-05T11:22:40.604Z,27.45
2019-04-05T11:25:09.801Z,27.40
2019-04-05T11:27:39.150Z,27.00
2019-04-05T11:30:08.910Z,27.17
2019-04-05T11:32:38.378Z,27.00
2019-04-05T11:35:08.134Z,25.62
2019-04-05T11:37:39.479Z,27.25
2019-04-05T11:40:08.570Z,27.52
2019-04-05T11:42:38.308Z,27.13
2019-04-05T11:45:08.501Z,26.52
2019-04-05T11:47:37.989Z,30.23
2019-04-05T11:50:11.718Z,31.25
2019-04-05T11:52:40.917Z,29.95
2019-04-05T11:55:10.231Z,26.62
2019-04-05T11:57:41.453Z,25.65
2019-04-05T12:00:16.027Z,32.17
2019-04-05T12:02:46.901Z,28.02
2019-04-05T12:05:17.824Z,31.73
2019-04-05T12:07:47.025Z,32.08
2019-04-05T12:10:18.601Z,26.68
2019-04-05T12:12:47.178Z,26.73
2019-04-05T12:15:16.316Z,28.50
2019-04-05T12:17:45.482Z,27.20
2019-04-05T12:20:14.709Z,28.98
2019-04-05T12:22:44.009Z,28.42
2019-04-05T12:25:13.272Z,27.27
2019-04-05T12:27:42.497Z,29.02
2019-04-05T12:30:13.375Z,25.43
2019-04-05T12:32:42.695Z,30.30
2019-04-05T12:35:11.976Z,27.02
2019-04-05T12:37:50.077Z,24.82
2019-04-05T12:40:14.721Z,25.75
2019-04-05T12:42:43.696Z,26.57
2019-04-05T12:45:15.296Z,29.60
2019-04-05T12:47:45.686Z,28.67
2019-04-05T12:50:15.959Z,26.75
2019-04-05T12:52:45.171Z,25.97
2019-04-05T12:55:14.356Z,29.15
2019-04-05T12:57:44.350Z,25.95
2019-04-05T13:00:15.038Z,26.37
2019-04-05T13:02:44.259Z,27.37
2019-04-05T13:05:13.452Z,24.75
2019-04-05T13:07:42.905Z,26.33
2019-04-05T13:10:12.183Z,27.00
2019-04-05T13:12:41.490Z,23.95
2019-04-05T13:15:16.830Z,24.63
2019-04-05T13:17:41.958Z,23.98
2019-04-05T13:20:11.292Z,24.30
2019-04-05T13:22:40.480Z,28.27
2019-04-05T13:25:11.104Z,25.57
2019-04-05T13:27:41.535Z,32.33
2019-04-05T13:30:12.643Z,28.92
2019-04-05T13:32:41.878Z,25.52
2019-04-05T13:35:16.575Z,27.67
2019-04-05T13:37:44.711Z,29.20
2019-04-05T13:40:13.963Z,25.95
2019-04-05T13:42:43.142Z,27.75
2019-04-05T13:45:12.405Z,26.68
2019-04-05T13:47:41.587Z,23.25
2019-04-05T13:50:11.413Z,28.35
2019-04-05T13:52:42.368Z,30.23
2019-04-05T13:55:11.752Z,29.55
2019-04-05T13:57:41.258Z,26.30
2019-04-05T14:00:11.140Z,27.70
2019-04-05T14:02:40.363Z,29.12
2019-04-05T14:05:09.542Z,26.55
2019-04-05T14:07:39.753Z,27.35
2019-04-05T14:10:12.374Z,29.25
2019-04-05T14:12:41.047Z,27.37
2019-04-05T14:15:11.303Z,29.05
2019-04-05T14:17:44.076Z,27.52
2019-04-05T14:20:12.075Z,26.65
2019-04-05T14:22:41.249Z,27.10
2019-04-05T14:25:11.074Z,26.17
2019-04-05T14:27:40.321Z,27.00
2019-04-05T14:30:09.837Z,23.83
2019-04-05T14:32:39.047Z,26.35
2019-04-05T14:35:08.914Z,24.92
2019-04-05T14:37:38.099Z,28.95
2019-04-05T14:40:07.402Z,30.08
2019-04-05T14:42:36.967Z,24.92
2019-04-05T14:45:07.686Z,28.87
2019-04-05T14:47:37.002Z,28.42
2019-04-05T14:50:07.632Z,32.25
2019-04-05T14:52:37.917Z,29.00
2019-04-05T14:55:07.148Z,26.52
2019-04-05T14:57:36.713Z,26.70
2019-04-05T15:00:08.169Z,28.25
2019-04-05T15:02:38.322Z,28.38
2019-04-05T15:05:07.654Z,24.18
2019-04-05T15:07:37.926Z,26.97
2019-04-05T15:10:07.400Z,26.52
2019-04-05T15:12:36.553Z,26.93
2019-04-05T15:15:07.151Z,26.68
2019-04-05T15:17:47.378Z,24.80
2019-04-05T15:20:07.527Z,26.37
2019-04-05T15:22:36.710Z,25.88
2019-04-05T15:25:06.686Z,26.57
2019-04-05T15:27:35.846Z,27.60
2019-04-05T15:30:06.273Z,28.65
2019-04-05T15:32:37.387Z,25.12
2019-04-05T15:35:07.644Z,27.25
2019-04-05T15:37:37.652Z,24.90
2019-04-05T15:40:08.228Z,27.95
2019-04-05T15:42:37.414Z,29.10
2019-04-05T15:45:09.615Z,29.00
2019-04-05T15:47:38.831Z,27.00
2019-04-05T15:50:08.144Z,31.70
2019-04-05T15:52:37.478Z,30.40
2019-04-05T15:55:07.068Z,28.98
2019-04-05T15:57:39.340Z,28.32
2019-04-05T16:00:09.242Z,33.08
2019-04-05T16:02:38.503Z,32.30
2019-04-05T16:05:07.841Z,32.70
2019-04-05T16:07:37.069Z,33.30
2019-04-05T16:10:10.557Z,33.67
2019-04-05T16:12:39.952Z,33.85
2019-04-05T16:15:09.271Z,33.00
2019-04-05T16:17:38.635Z,37.00
2019-04-05T16:20:09.599Z,33.23
2019-04-05T16:22:38.818Z,32.42
2019-04-05T16:25:08.260Z,36.28
2019-04-05T16:27:37.499Z,35.15
2019-04-05T16:30:07.002Z,36.68
2019-04-05T16:32:36.355Z,41.45
2019-04-05T16:35:07.468Z,41.92
2019-04-05T16:37:37.798Z,35.73
2019-04-05T16:40:07.912Z,37.95
2019-04-05T16:42:37.141Z,40.83
2019-04-05T16:45:09.382Z,38.15
2019-04-05T16:47:38.687Z,37.97
2019-04-05T16:50:08.220Z,41.80
2019-04-05T16:52:45.032Z,34.85
2019-04-05T16:55:16.435Z,40.50
2019-04-05T16:57:45.754Z,35.38
2019-04-05T17:00:14.931Z,36.33
2019-04-05T17:02:44.244Z,36.08
2019-04-05T17:05:13.971Z,36.95
2019-04-05T17:07:43.155Z,36.53
2019-04-05T17:10:12.731Z,40.65
2019-04-05T17:12:41.907Z,39.60
2019-04-05T17:15:11.966Z,39.27
2019-04-05T17:17:43.452Z,35.25
2019-04-05T17:20:12.712Z,40.35
2019-04-05T17:22:41.933Z,37.58
2019-04-05T17:25:11.191Z,36.33
2019-04-05T17:27:40.532Z,39.45
2019-04-05T17:30:09.853Z,34.83
2019-04-05T17:32:40.749Z,35.35
2019-04-05T17:35:10.036Z,35.28
2019-04-05T17:37:39.208Z,38.17
2019-04-05T17:40:09.563Z,38.38
2019-04-05T17:42:38.857Z,35.52
2019-04-05T17:45:10.065Z,36.40
2019-04-05T17:47:39.376Z,40.23
2019-04-05T17:50:10.619Z,36.73
2019-04-05T17:52:39.473Z,39.33
2019-04-05T17:55:08.695Z,36.75
2019-04-05T17:57:37.949Z,40.73
2019-04-05T18:00:09.379Z,36.85
2019-04-05T18:02:38.720Z,40.63
2019-04-05T18:05:07.986Z,35.30
2019-04-05T18:07:37.439Z,39.05
2019-04-05T18:10:06.852Z,39.92
2019-04-05T18:12:36.055Z,40.25
2019-04-05T18:15:05.600Z,43.78
2019-04-05T18:17:34.757Z,44.60
2019-04-05T18:20:05.587Z,44.00
2019-04-05T18:22:34.731Z,45.30
2019-04-05T18:25:04.945Z,46.02
2019-04-05T18:27:34.204Z,83.15
2019-04-05T18:30:04.233Z,42.95
2019-04-05T18:32:33.590Z,48.17
2019-04-05T18:35:03.125Z,44.60
2019-04-05T18:37:35.100Z,49.30
2019-04-05T18:40:05.029Z,45.90
2019-04-05T18:42:34.209Z,45.98
2019-04-05T18:45:03.947Z,47.75
2019-04-05T18:47:33.173Z,49.20
2019-04-05T18:50:03.380Z,45.88
2019-04-05T18:52:32.791Z,47.25
2019-04-05T18:55:02.046Z,49.65
2019-04-05T18:57:31.210Z,48.60
2019-04-05T19:00:00.411Z,51.15
2019-04-05T19:02:29.591Z,49.13
2019-04-05T19:04:58.820Z,49.23
2019-04-05T19:07:27.979Z,53.33
2019-04-05T19:09:57.161Z,51.08
2019-04-05T19:12:26.475Z,51.08
2019-04-05T19:14:57.735Z,53.60
2019-04-05T19:17:26.816Z,52.48
2019-04-05T19:19:56.362Z,47.50
2019-04-05T19:22:25.563Z,53.73
2019-04-05T19:24:55.743Z,52.23
2019-04-05T19:27:25.005Z,48.92
2019-04-05T19:50:17.806Z,50.75
2019-04-05T19:52:46.981Z,54.63
2019-04-05T19:55:16.229Z,51.88
2019-04-05T19:57:45.414Z,52.75
2019-04-05T20:00:14.857Z,49.88
2019-04-05T20:02:44.048Z,48.13
2019-04-05T20:05:13.231Z,48.58
2019-04-05T20:07:42.417Z,54.40
2019-04-05T20:10:11.587Z,53.68
2019-04-05T20:12:41.905Z,55.55
2019-04-05T20:15:12.190Z,56.75
2019-04-05T20:17:41.451Z,54.40
2019-04-05T20:20:10.621Z,52.17
2019-04-05T20:22:39.800Z,59.18
2019-04-05T20:25:09.046Z,57.03
2019-04-05T20:27:38.303Z,59.40
2019-04-05T20:30:07.766Z,54.55
2019-04-05T20:32:37.033Z,52.13
2019-04-05T20:35:06.314Z,58.02
2019-04-05T20:37:35.621Z,53.40
2019-04-05T20:40:06.818Z,55.00
2019-04-05T20:42:36.036Z,53.45
2019-04-05T20:45:05.664Z,50.75
2019-04-05T20:47:34.841Z,57.70
2019-04-05T20:50:07.960Z,56.63
2019-04-05T20:52:37.242Z,52.00
2019-04-05T20:55:07.068Z,54.83
2019-04-05T20:57:36.294Z,51.28
2019-04-05T21:00:07.779Z,54.50
2019-04-05T21:05:07.147Z,83.52
2019-04-05T21:07:36.367Z,54.40
2019-04-05T21:10:07.059Z,55.65
2019-04-05T21:12:36.255Z,52.25
2019-04-05T21:15:08.429Z,48.33
2019-04-05T21:17:38.733Z,49.83
2019-04-05T21:20:07.948Z,51.65
2019-04-05T21:22:37.217Z,51.80
2019-04-05T21:25:07.021Z,53.95
2019-04-05T21:27:36.243Z,48.63
2019-04-05T21:30:07.168Z,49.75
2019-04-05T21:32:36.405Z,47.75
2019-04-05T21:35:06.715Z,50.85
2019-04-05T21:37:35.913Z,53.40
2019-04-05T21:40:06.717Z,53.00
2019-04-05T21:42:36.135Z,52.03
2019-04-05T21:45:06.272Z,50.40
2019-04-05T21:47:35.524Z,51.08
2019-04-05T21:50:06.812Z,51.53
2019-04-05T21:52:36.155Z,56.70
2019-04-05T21:55:06.731Z,52.40
2019-04-05T21:57:36.013Z,53.52
2019-04-05T22:00:23.705Z,50.78
2019-04-05T22:02:54.563Z,52.85
2019-04-05T22:05:23.755Z,48.92
2019-04-05T22:07:53.003Z,49.83
2019-04-05T22:10:22.183Z,51.92
2019-04-05T22:12:51.457Z,53.52
2019-04-05T22:15:20.776Z,49.05
2019-04-05T22:17:49.987Z,54.83
2019-04-05T22:20:19.204Z,54.70
2019-04-05T22:22:48.466Z,52.23
2019-04-05T22:25:17.624Z,49.63
2019-04-05T22:27:46.805Z,50.90
2019-04-05T22:30:15.972Z,48.68
2019-04-05T22:32:45.152Z,52.00
2019-04-05T22:35:14.372Z,52.23
2019-04-05T22:37:43.708Z,50.08
2019-04-05T22:40:13.058Z,51.40
2019-04-05T22:42:42.318Z,53.28
2019-04-05T22:45:11.499Z,48.15
2019-04-05T22:47:40.834Z,50.03
2019-04-05T22:50:10.080Z,51.95
2019-04-05T22:52:39.308Z,53.00
2019-04-05T22:55:11.373Z,49.35
2019-04-05T22:57:39.544Z,56.35
2019-04-05T23:00:09.305Z,47.45
2019-04-05T23:02:40.076Z,48.78
2019-04-05T23:05:09.400Z,51.53
2019-04-05T23:07:38.560Z,48.45
2019-04-05T23:10:08.393Z,49.48
2019-04-05T23:12:37.563Z,50.80
2019-04-05T23:15:08.371Z,48.73
2019-04-05T23:17:37.537Z,49.40
2019-04-05T23:20:07.626Z,51.40
2019-04-05T23:22:36.839Z,50.90
2019-04-05T23:25:07.110Z,52.05
2019-04-05T23:27:36.253Z,48.02
2019-04-05T23:30:07.603Z,47.98
2019-04-05T23:32:36.757Z,49.50
2019-04-05T23:35:06.799Z,51.40
2019-04-05T23:37:35.994Z,47.35
2019-04-05T23:40:06.169Z,48.55
2019-04-05T23:42:35.324Z,47.00
2019-04-05T23:45:05.813Z,45.03
2019-04-05T23:47:35.045Z,49.70
2019-04-05T23:50:05.337Z,48.48
2019-04-05T23:52:34.782Z,50.08
2019-04-05T23:55:05.189Z,46.00
2019-04-05T23:57:36.324Z,49.80
